Country
Station

 

Weather  for  Borlange  -  Sweden    Sweden

  
10 °C (50 °F)
    
 
 

Current METAR for Borlange is :

ESSD 180950Z 35011KT 9999 BKN036 10/03 Q1012

 

This is a report for Borlange - Sweden.
 
The report was made 24 minutes ago, at 09:50 UTC .
The wind was blowing at a speed of 5.7 meters per second (12.7 miles per hour) from north (350°).
 
The temperature was 10 °C (50 °F), with a dew-point at 3 °C (37 °F).
The atmospheric pressure was 1012 hPa (29.88 inHg).
The relative humidity was 61.7%.
 
There were broken clouds at a height of 1097 meters (3600 feet).
 
The overall visibility was greater than 10 kilometers (6.2 miles).
 

 
 
 
 

Country :   A   B   C   D   E   F   G   H   I   J   K   L   M   N   O   P   Q   R   S   T   U   V   W   Y   Z

 

Site Info  |  Disclaimer  |  Credits  |  Privacy
Contact us  |  Add to favorites
© 2013-2019 METARs - All rights reserved